createdAt,value
2022-10-05T00:04:01.467Z,11.7
2022-10-05T00:09:51.709Z,11.8
2022-10-05T00:15:40.612Z,11.8
2022-10-05T00:21:29.148Z,11.8
2022-10-05T00:27:17.743Z,11.8
2022-10-05T00:33:07.820Z,11.8
2022-10-05T00:38:55.990Z,11.6
2022-10-05T00:44:44.185Z,11.7
2022-10-05T00:50:33.324Z,11.6
2022-10-05T00:56:22.522Z,11.6
2022-10-05T01:02:13.956Z,11.5
2022-10-05T01:08:03.183Z,11.6
2022-10-05T01:13:54.088Z,11.1
2022-10-05T01:19:42.713Z,11.3
2022-10-05T01:25:31.476Z,11.1
2022-10-05T01:31:20.367Z,11.1
2022-10-05T01:37:10.802Z,11
2022-10-05T01:42:59.268Z,10.8
2022-10-05T01:48:47.446Z,10.7
2022-10-05T01:54:36.119Z,10.6
2022-10-05T02:00:28.382Z,10.6
2022-10-05T02:06:18.957Z,10.3
2022-10-05T02:12:08.691Z,10.2
2022-10-05T02:18:05.507Z,10.2
2022-10-05T02:23:58.231Z,10
2022-10-05T02:29:48.295Z,10.1
2022-10-05T02:35:38.223Z,10.2
2022-10-05T02:41:31.895Z,10.2
2022-10-05T02:47:22.087Z,10
2022-10-05T02:53:11.954Z,10.1
2022-10-05T02:59:01.349Z,10.2
2022-10-05T03:04:51.260Z,10.2
2022-10-05T03:10:49.360Z,10.3
2022-10-05T03:16:40.341Z,10.3
2022-10-05T03:22:30.979Z,10.2
2022-10-05T03:28:20.151Z,10.2
2022-10-05T03:34:09.228Z,10.1
2022-10-05T03:39:59.471Z,10.1
2022-10-05T03:45:50.078Z,10.1
2022-10-05T03:51:39.715Z,9.9
2022-10-05T03:57:28.417Z,10
2022-10-05T04:03:18.248Z,10.1
2022-10-05T04:09:08.130Z,10.2
2022-10-05T04:15:17.963Z,10.2
2022-10-05T04:21:11.950Z,10.2
2022-10-05T04:27:08.291Z,10.1
2022-10-05T04:33:02.764Z,10.3
2022-10-05T04:38:53.465Z,10.2
2022-10-05T04:44:43.618Z,10.1
2022-10-05T04:50:38.544Z,10.1
2022-10-05T04:56:28.489Z,10.1
2022-10-05T05:02:18.289Z,10.2
2022-10-05T05:08:07.271Z,10
2022-10-05T05:13:58.080Z,10.1
2022-10-05T05:19:50.706Z,10
2022-10-05T05:25:40.471Z,10
2022-10-05T05:31:31.609Z,9.9
2022-10-05T05:37:21.095Z,10.1
2022-10-05T05:43:11.392Z,10
2022-10-05T05:49:01.856Z,10.1
2022-10-05T05:54:51.956Z,10.2
2022-10-05T06:00:44.010Z,10.1
2022-10-05T06:06:35.708Z,10.3
2022-10-05T06:12:24.239Z,10.4
2022-10-05T06:18:12.649Z,10.5
2022-10-05T06:24:03.616Z,10.8
2022-10-05T06:29:52.893Z,10.8
2022-10-05T06:35:42.174Z,10.9
2022-10-05T06:41:32.764Z,11
2022-10-05T06:47:23.444Z,11.1
2022-10-05T06:53:13.474Z,11.3
2022-10-05T06:59:02.689Z,11.4
2022-10-05T07:04:52.947Z,11.4
2022-10-05T07:10:42.316Z,11.6
2022-10-05T07:16:33.405Z,11.7
2022-10-05T07:22:24.092Z,11.8
2022-10-05T07:28:22.748Z,11.9
2022-10-05T07:34:13.690Z,12
2022-10-05T07:40:03.962Z,12.2
2022-10-05T07:45:55.021Z,12.3
2022-10-05T07:51:47.029Z,12.4
2022-10-05T07:57:37.894Z,12.6
2022-10-05T08:03:28.518Z,12.7
2022-10-05T08:09:16.627Z,12.8
2022-10-05T08:15:07.788Z,13
2022-10-05T08:20:57.734Z,13.2
2022-10-05T08:26:47.751Z,13.2
2022-10-05T08:32:37.985Z,13.4
2022-10-05T08:38:26.672Z,13.4
2022-10-05T08:44:15.735Z,13.6
2022-10-05T08:50:06.784Z,13.9
2022-10-05T08:55:59.586Z,14.1
2022-10-05T09:01:50.953Z,14.4
2022-10-05T09:07:40.905Z,14.5
2022-10-05T09:13:31.472Z,14.7
2022-10-05T09:19:23.318Z,14.9
2022-10-05T09:25:13.505Z,15.3
2022-10-05T09:31:03.498Z,15.4
2022-10-05T09:36:55.054Z,15.7
2022-10-05T09:42:46.536Z,15.8
2022-10-05T09:48:36.036Z,16
2022-10-05T09:54:26.405Z,16.1
2022-10-05T10:00:16.398Z,16.1
2022-10-05T10:06:08.103Z,16.3
2022-10-05T10:11:58.504Z,16.4
2022-10-05T10:17:49.219Z,16.7
2022-10-05T10:23:40.001Z,17.2
2022-10-05T10:29:59.925Z,17.1
2022-10-05T10:35:51.941Z,17.4
2022-10-05T10:41:55.865Z,17.3
2022-10-05T10:47:49.252Z,17.5
2022-10-05T10:53:40.763Z,17.7
2022-10-05T10:59:34.580Z,17.7
2022-10-05T11:05:24.310Z,18
2022-10-05T11:11:23.228Z,17.7
2022-10-05T11:17:15.606Z,17.9
2022-10-05T11:23:07.065Z,17.9
2022-10-05T11:28:59.285Z,18
2022-10-05T11:34:54.296Z,18
2022-10-05T11:40:46.002Z,18
2022-10-05T11:46:37.710Z,18.1
2022-10-05T11:58:50.719Z,18.5
2022-10-05T12:04:42.511Z,18.7
2022-10-05T12:10:34.140Z,18.8
2022-10-05T12:16:26.072Z,18.6
2022-10-05T12:22:18.128Z,18.6
2022-10-05T12:28:14.850Z,18.6
2022-10-05T12:34:08.850Z,18.5
2022-10-05T12:40:15.445Z,18.7
2022-10-05T12:46:14.100Z,18.7
2022-10-05T12:52:20.316Z,18.8
2022-10-05T12:58:26.768Z,18.9
2022-10-05T13:04:32.047Z,18.9
2022-10-05T13:10:39.013Z,19.1
2022-10-05T13:16:32.656Z,19.1
2022-10-05T13:22:27.314Z,19.2
2022-10-05T13:28:24.465Z,19.5
2022-10-05T13:34:16.317Z,19.5
2022-10-05T13:40:08.799Z,19.6
2022-10-05T13:46:02.239Z,19.8
2022-10-05T13:51:56.707Z,19.7
2022-10-05T13:57:50.560Z,19.8
2022-10-05T14:03:42.882Z,19.6
2022-10-05T14:09:39.777Z,19.7
2022-10-05T14:15:31.563Z,19.6
2022-10-05T14:21:34.232Z,19.8
2022-10-05T14:27:26.475Z,19.8
2022-10-05T14:33:18.509Z,19.8
2022-10-05T14:39:16.319Z,19.9
2022-10-05T14:45:08.235Z,19.9
2022-10-05T14:50:59.602Z,19.8
2022-10-05T14:56:49.612Z,19.8
2022-10-05T15:02:40.143Z,19.9
2022-10-05T15:08:31.234Z,19.7
2022-10-05T15:14:24.208Z,19.9
2022-10-05T15:20:15.288Z,20
2022-10-05T15:26:07.472Z,20.1
2022-10-05T15:31:58.415Z,20
2022-10-05T15:37:55.367Z,19.9
2022-10-05T15:43:45.555Z,19.7
2022-10-05T15:49:35.706Z,19.8
2022-10-05T15:55:26.941Z,19.6
2022-10-05T16:01:18.843Z,19.5
2022-10-05T16:07:09.664Z,19.4
2022-10-05T16:13:00.525Z,19.4
2022-10-05T16:18:53.110Z,19.4
2022-10-05T16:24:42.422Z,19.3
2022-10-05T16:30:32.418Z,19.2
2022-10-05T16:36:23.040Z,19
2022-10-05T16:42:13.456Z,19
2022-10-05T16:48:04.283Z,19
2022-10-05T16:53:55.108Z,18.9
2022-10-05T16:59:45.557Z,18.9
2022-10-05T17:05:35.311Z,18.9
2022-10-05T17:11:25.478Z,18.9
2022-10-05T17:17:15.405Z,18.8
2022-10-05T17:23:05.414Z,18.7
2022-10-05T17:28:56.085Z,18.6
2022-10-05T17:34:45.837Z,18.5
2022-10-05T17:40:36.606Z,18.5
2022-10-05T17:46:26.640Z,18.3
2022-10-05T17:52:17.121Z,18.1
2022-10-05T17:58:08.820Z,18.1
2022-10-05T18:03:59.606Z,17.9
2022-10-05T18:09:49.321Z,18
2022-10-05T18:15:39.259Z,17.9
2022-10-05T18:21:29.175Z,17.6
2022-10-05T18:27:19.525Z,17.3
2022-10-05T18:33:15.736Z,17.6
2022-10-05T18:39:06.391Z,17.6
2022-10-05T18:44:56.905Z,17.8
2022-10-05T18:50:49.977Z,17.8
2022-10-05T18:56:42.100Z,17.9
2022-10-05T19:02:33.717Z,17.9
2022-10-05T19:08:24.236Z,17.8
2022-10-05T19:14:17.979Z,17.6
2022-10-05T19:20:11.339Z,17.5
2022-10-05T19:26:01.059Z,17.2
2022-10-05T19:31:51.405Z,17.3
2022-10-05T19:37:41.966Z,17.3
2022-10-05T19:43:32.091Z,17.2
2022-10-05T19:49:22.161Z,17.2
2022-10-05T19:55:14.502Z,17.1
2022-10-05T20:01:05.550Z,17
2022-10-05T20:06:58.474Z,17
2022-10-05T20:12:50.597Z,16.8
2022-10-05T20:18:40.042Z,16.8
2022-10-05T20:24:30.647Z,16.9
2022-10-05T20:30:20.833Z,16.8
2022-10-05T20:36:11.739Z,16.9
2022-10-05T20:42:02.893Z,17
2022-10-05T20:47:53.440Z,16.9
2022-10-05T20:53:46.301Z,16.9
2022-10-05T20:59:37.148Z,16.9
2022-10-05T21:05:27.811Z,16.9
2022-10-05T21:11:18.190Z,16.9
2022-10-05T21:17:08.354Z,16.8
2022-10-05T21:22:59.473Z,16.8
2022-10-05T21:28:52.490Z,16.9
2022-10-05T21:34:42.398Z,16.9
2022-10-05T21:40:33.822Z,16.9
2022-10-05T21:46:24.737Z,16.9
2022-10-05T21:52:17.834Z,16.9
2022-10-05T21:58:10.328Z,16.9
2022-10-05T22:04:02.855Z,16.9
2022-10-05T22:09:57.015Z,17
2022-10-05T22:15:49.161Z,17
2022-10-05T22:21:42.191Z,17.1
2022-10-05T22:27:33.863Z,17.1
2022-10-05T22:33:25.140Z,17.1
2022-10-05T22:39:14.104Z,17.1
2022-10-05T22:45:05.551Z,17.1
2022-10-05T22:50:58.796Z,17.1
2022-10-05T22:56:50.507Z,17.2
2022-10-05T23:02:41.644Z,17.2
2022-10-05T23:08:32.706Z,17.1
2022-10-05T23:14:23.219Z,16.6
2022-10-05T23:20:13.954Z,16.4
2022-10-05T23:26:04.899Z,16.4
2022-10-05T23:31:56.474Z,16.3
2022-10-05T23:37:47.201Z,16.2
2022-10-05T23:43:39.058Z,16.1
2022-10-05T23:49:31.177Z,16.1
2022-10-05T23:55:22.320Z,16.1
